Shawano, WI (54166)

7:23 AM CST on December 04, 2016 (GMT -0600)
Willow Wood | | Change Station
Active Advisory: Winter Weather Advisory

Elev 810 ft 44.79 °N, 88.58 °W | Updated 7 minutes ago

Light Snow
Light Snow
29.8 °F
Feels Like 30 °F
N
1.9
Wind Variable Wind from West
Gusts 3.7 mph

Today
High -- | Low -- °F
--% Chance of Precip.
Yesterday
High -- | Low -- °F
Precip. -- in
Pressure 30.14 in
Visibility 3.0 miles
Clouds Mostly Cloudy 1900 ft
Overcast 2700 ft
Windchill 30 °F
Dew Point 24 °F
Humidity 80%
Rainfall 0.00 in
Snow Depth Not available.
7:15 AM 4:14 PM
Waxing Crescent, 22% visible
METAR KEZS 041315Z AUTO 17004KT 3SM -SN BKN019 OVC027 00/M03 A3014 RMK AO2 T10051029
Pressure 30.14 in
Visibility 3.0 miles
Clouds Mostly Cloudy 1900 ft
Overcast 2700 ft
Windchill 30 °F
Dew Point 24 °F
Humidity 80%
Rainfall 0.00 in
Snow Depth Not available.
7:15 AM 4:14 PM
Waxing Crescent, 22% visible
METAR KEZS 041315Z AUTO 17004KT 3SM -SN BKN019 OVC027 00/M03 A3014 RMK AO2 T10051029

10-Day Weather Forecast

Almanac

Astronomy

Dec. 04, 2016 Rise Set
Actual Time
Civil Twilight
Nautical Twilight
Astronomical Twilight
Moon
Length of Visible Light
Length of Day
Tomorrow will be .
, % of the Moon is Illuminated

Today's Extremes

State Highs State Lows

Community

WunderPhotos

Upload Photos

1,955,593 photos uploaded!

WunderBlog® & News

Nearby

Air Quality

  Air Quality AQ Index Pollutant
Not available.

Snow Depth

Station Depth Elevation

Earthquake Activity

City Distance Mag. Time & Date
Minimum magnitude displayed is 2.5.

Coastal Water Temperatures

Place Temperature

Stations

Nearby Weather Stations

Station Location Temp. Windchill Dew Point Humidity Wind Precip. Elev Updated Type
                   

Watches & Warnings

Winter Weather Advisory
Issued: 3:17 AM CST Dec. 4, 2016 – National Weather Service

... Winter Weather Advisory remains in effect from 9 am this
morning to 6 PM CST this evening...

* snow is expected to arrive during the morning and end this
evening. Heaviest snowfall should be during the afternoon.

* Snow accumulations should be in the 2 to 3 inch range at most
locations, but amounts could be higher west of the Fox Valley.

* The snow will cause roads to become snow covered and slippery,
making travel hazardous. Air travel delays are also possible.

Precautionary/preparedness actions...

A Winter Weather Advisory for snow means periods of snow will
cause primarily travel difficulties. Be prepared for snow covered
roads and limited visibilities... and use extra caution while
driving. The latest Wisconsin Road conditions can be obtained by
calling 511.